createdAt,value
2024-03-16T00:00:51.027Z,2.87
2024-03-16T00:03:17.859Z,2.89
2024-03-16T00:05:44.570Z,2.84
2024-03-16T00:08:11.834Z,2.83
2024-03-16T00:10:38.725Z,2.81
2024-03-16T00:13:08.115Z,2.77
2024-03-16T00:15:34.991Z,2.81
2024-03-16T00:18:01.789Z,2.66
2024-03-16T00:20:28.724Z,2.74
2024-03-16T00:22:56.094Z,2.74
2024-03-16T00:25:22.853Z,2.72
2024-03-16T00:27:53.653Z,2.71
2024-03-16T00:30:21.564Z,2.65
2024-03-16T00:32:48.646Z,2.65
2024-03-16T00:35:15.418Z,2.59
2024-03-16T00:37:42.269Z,2.54
2024-03-16T00:40:10.630Z,2.53
2024-03-16T00:42:37.552Z,2.55
2024-03-16T00:45:06.339Z,2.56
2024-03-16T00:47:33.094Z,2.53
2024-03-16T00:49:59.832Z,2.49
2024-03-16T00:52:27.435Z,2.46
2024-03-16T00:54:54.224Z,2.44
2024-03-16T00:57:20.968Z,2.42
2024-03-16T00:59:48.297Z,2.44
2024-03-16T01:02:14.999Z,2.41
2024-03-16T01:04:41.715Z,2.38
2024-03-16T01:07:08.750Z,2.33
2024-03-16T01:09:35.504Z,2.34
2024-03-16T01:12:02.237Z,2.31
2024-03-16T01:14:30.070Z,2.25
2024-03-16T01:16:56.780Z,2.23
2024-03-16T01:19:23.510Z,2.24
2024-03-16T01:21:51.210Z,2.22
2024-03-16T01:24:18.397Z,2.22
2024-03-16T01:26:45.192Z,2.21
2024-03-16T01:29:17.154Z,2.18
2024-03-16T01:31:44.050Z,2.22
2024-03-16T01:34:10.975Z,2.21
2024-03-16T01:36:37.843Z,2.19
2024-03-16T01:39:04.796Z,2.18
2024-03-16T01:41:31.524Z,2.11
2024-03-16T01:44:11.625Z,2.13
2024-03-16T01:46:42.921Z,2.11
2024-03-16T01:49:10.565Z,2.08
2024-03-16T01:51:38.612Z,2.08
2024-03-16T01:54:06.756Z,2.12
2024-03-16T01:56:35.270Z,2.09
2024-03-16T01:59:02.021Z,2.09
2024-03-16T02:01:29.284Z,2.07
2024-03-16T02:03:58.908Z,2.04
2024-03-16T02:06:28.294Z,2.07
2024-03-16T02:08:55.502Z,2.08
2024-03-16T02:11:23.354Z,2.06
2024-03-16T02:13:50.592Z,2.05
2024-03-16T02:16:17.439Z,1.99
2024-03-16T02:18:44.451Z,2.03
2024-03-16T02:21:11.877Z,2.05
2024-03-16T02:23:40.879Z,2.06
2024-03-16T02:26:12.699Z,2.05
2024-03-16T02:28:39.599Z,2.07
2024-03-16T02:31:06.833Z,2.07
2024-03-16T02:33:33.962Z,2.07
2024-03-16T02:36:00.788Z,2.03
2024-03-16T02:38:27.512Z,2.06
2024-03-16T02:40:55.052Z,2.06
2024-03-16T02:43:21.793Z,2.05
2024-03-16T02:45:48.596Z,2.04
2024-03-16T02:48:16.034Z,2.03
2024-03-16T02:50:42.764Z,1.99
2024-03-16T02:53:09.706Z,2.02
2024-03-16T02:55:37.352Z,2.02
2024-03-16T02:58:04.323Z,2.02
2024-03-16T03:00:31.180Z,2.02
2024-03-16T03:02:58.514Z,2.01
2024-03-16T03:05:25.356Z,2.04
2024-03-16T03:07:53.969Z,2.00
2024-03-16T03:10:20.989Z,1.98
2024-03-16T03:12:47.774Z,1.92
2024-03-16T03:15:14.597Z,1.93
2024-03-16T03:17:42.128Z,1.94
2024-03-16T03:20:10.475Z,1.93
2024-03-16T03:22:37.567Z,1.92
2024-03-16T03:25:07.124Z,1.78
2024-03-16T03:27:35.052Z,1.87
2024-03-16T03:30:02.035Z,1.88
2024-03-16T03:32:29.512Z,1.91
2024-03-16T03:34:56.341Z,1.94
2024-03-16T03:37:23.136Z,1.91
2024-03-16T03:39:54.062Z,1.89
2024-03-16T03:42:26.172Z,1.84
2024-03-16T03:45:12.101Z,1.88
2024-03-16T03:47:51.436Z,1.87
2024-03-16T03:50:29.817Z,1.91
2024-03-16T03:52:57.045Z,1.91
2024-03-16T03:55:23.868Z,1.88
2024-03-16T03:57:52.956Z,1.85
2024-03-16T04:00:20.698Z,1.89
2024-03-16T04:02:47.595Z,1.89
2024-03-16T04:05:14.437Z,1.90
2024-03-16T04:07:42.910Z,1.86
2024-03-16T04:10:10.321Z,1.93
2024-03-16T04:12:37.605Z,1.90
2024-03-16T04:15:07.091Z,1.93
2024-03-16T04:17:33.850Z,1.92
2024-03-16T04:20:00.825Z,1.91
2024-03-16T04:22:27.571Z,1.88
2024-03-16T04:24:54.534Z,1.92
2024-03-16T04:27:21.343Z,1.91
2024-03-16T04:29:48.273Z,1.90
2024-03-16T04:32:15.659Z,1.87
2024-03-16T04:34:42.435Z,1.87
2024-03-16T04:37:09.919Z,1.90
2024-03-16T04:39:36.675Z,1.89
2024-03-16T04:42:03.568Z,1.88
2024-03-16T04:44:30.411Z,1.86
2024-03-16T04:46:57.134Z,1.86
2024-03-16T04:49:23.832Z,1.87
2024-03-16T04:51:50.699Z,1.91
2024-03-16T04:54:17.477Z,1.93
2024-03-16T04:56:44.213Z,1.98
2024-03-16T04:59:12.486Z,2.00
2024-03-16T05:01:39.468Z,2.03
2024-03-16T05:04:06.490Z,2.08
2024-03-16T05:06:34.759Z,2.14
2024-03-16T05:09:07.960Z,2.20
2024-03-16T05:11:34.972Z,2.25
2024-03-16T05:14:07.360Z,2.28
2024-03-16T05:16:38.732Z,2.38
2024-03-16T05:19:06.351Z,2.41
2024-03-16T05:21:33.382Z,2.49
2024-03-16T05:24:03.092Z,2.52
2024-03-16T05:26:32.127Z,2.63
2024-03-16T05:28:59.249Z,2.69
2024-03-16T05:31:28.593Z,2.72
2024-03-16T05:33:55.384Z,2.77
2024-03-16T05:36:22.115Z,2.81
2024-03-16T05:38:48.872Z,2.82
2024-03-16T05:41:16.057Z,2.87
2024-03-16T05:43:45.309Z,2.92
2024-03-16T05:46:12.897Z,2.97
2024-03-16T05:48:40.034Z,3.00
2024-03-16T05:51:06.888Z,3.09
2024-03-16T05:53:33.697Z,3.08
2024-03-16T05:56:00.505Z,3.23
2024-03-16T05:58:27.289Z,3.31
2024-03-16T06:00:55.188Z,3.34
2024-03-16T06:03:22.033Z,3.34
2024-03-16T06:05:48.793Z,3.39
2024-03-16T06:08:15.968Z,3.42
2024-03-16T06:10:42.941Z,3.47
2024-03-16T06:13:12.038Z,3.53
2024-03-16T06:15:40.671Z,3.60
2024-03-16T06:18:07.902Z,3.72
2024-03-16T06:20:34.943Z,3.75
2024-03-16T06:23:01.735Z,3.86
2024-03-16T06:25:30.642Z,3.90
2024-03-16T06:28:07.891Z,3.98
2024-03-16T06:30:35.381Z,4.06
2024-03-16T06:33:11.684Z,4.09
2024-03-16T06:35:42.575Z,4.18
2024-03-16T06:38:09.657Z,4.25
2024-03-16T06:40:36.469Z,4.29
2024-03-16T06:43:03.700Z,4.38
2024-03-16T06:45:30.607Z,4.48
2024-03-16T06:47:58.157Z,4.55
2024-03-16T06:50:25.187Z,4.68
2024-03-16T06:52:52.035Z,4.76
2024-03-16T06:55:20.220Z,4.80
2024-03-16T06:57:47.203Z,4.86
2024-03-16T07:00:15.530Z,4.90
2024-03-16T07:02:42.446Z,4.96
2024-03-16T07:05:10.712Z,5.04
2024-03-16T07:07:37.593Z,5.14
2024-03-16T07:10:09.607Z,5.20
2024-03-16T07:12:36.632Z,5.29
2024-03-16T07:15:05.245Z,5.29
2024-03-16T07:17:32.628Z,5.43
2024-03-16T07:19:59.932Z,5.47
2024-03-16T07:22:26.663Z,5.55
2024-03-16T07:24:53.649Z,5.64
2024-03-16T07:27:20.386Z,5.71
2024-03-16T07:29:47.095Z,5.81
2024-03-16T07:32:14.089Z,5.94
2024-03-16T07:34:40.814Z,6.05
2024-03-16T07:37:07.679Z,6.12
2024-03-16T07:39:34.528Z,6.21
2024-03-16T07:42:01.958Z,6.29
2024-03-16T07:44:30.455Z,6.42
2024-03-16T07:46:57.166Z,6.55
2024-03-16T07:49:24.582Z,6.61
2024-03-16T07:51:51.381Z,6.69
2024-03-16T07:54:18.752Z,6.82
2024-03-16T07:56:46.704Z,6.90
2024-03-16T07:59:15.181Z,6.97
2024-03-16T08:01:42.211Z,7.01
2024-03-16T08:04:09.521Z,7.10
2024-03-16T08:06:36.321Z,7.15
2024-03-16T08:09:03.720Z,7.22
2024-03-16T08:11:31.463Z,7.20
2024-03-16T08:13:58.234Z,7.36
2024-03-16T08:16:24.972Z,7.48
2024-03-16T08:18:51.787Z,7.46
2024-03-16T08:21:18.603Z,7.54
2024-03-16T08:23:45.351Z,7.64
2024-03-16T08:26:13.767Z,7.69
2024-03-16T08:28:40.866Z,7.79
2024-03-16T08:31:08.655Z,7.92
2024-03-16T08:33:35.578Z,8.00
2024-03-16T08:36:02.471Z,8.08
2024-03-16T08:38:31.724Z,8.16
2024-03-16T08:40:59.490Z,8.27
2024-03-16T08:43:26.405Z,8.32
2024-03-16T08:45:53.325Z,8.44
2024-03-16T08:48:20.117Z,8.54
2024-03-16T08:50:47.292Z,8.66
2024-03-16T08:53:14.560Z,8.79
2024-03-16T08:55:41.909Z,8.89
2024-03-16T08:58:09.184Z,9.09
2024-03-16T09:00:36.531Z,9.23
2024-03-16T09:03:03.505Z,9.42
2024-03-16T09:05:30.318Z,9.61
2024-03-16T09:07:57.029Z,9.67
2024-03-16T09:10:23.769Z,9.78
2024-03-16T09:12:50.600Z,9.86
2024-03-16T09:15:17.948Z,10.04
2024-03-16T09:17:44.830Z,10.28
2024-03-16T09:20:12.306Z,10.49
2024-03-16T09:22:39.936Z,10.60
2024-03-16T09:25:07.913Z,10.67
2024-03-16T09:27:35.481Z,10.78
2024-03-16T09:30:06.347Z,10.86
2024-03-16T09:32:34.575Z,10.96
2024-03-16T09:35:01.736Z,11.12
2024-03-16T09:37:29.059Z,11.34
2024-03-16T09:39:56.328Z,11.49
2024-03-16T09:42:24.106Z,11.70
